Archival Weather

Chicago O'Hare International

Chicago, Illinois (KORD)

Report from: Tuesday, December 6, 2022 2:51 AM CST
Current time: Saturday, February 4, 2023 10:04 PM CST

Current weather
Weather history
Weather forecast

Temperature3.3°C (37.9°F)
Wind chill0.8°C (33.5°F)
Dew point-0.6°C (30.9°F)
Winds 5 kts (2.6 m/s, 5.8 mph) North (360°)
Visibility10 mi. (16.1 km)
Clouds Ceiling: Broken clouds 3,400 ft. (1,036 m)
Overcast 9,500 ft. (2,896 m)
Altimeter29.96 in.Hg (1015 mB)
Relative humidity76 %
Density altitude-1,375 ft. (-419 m)
Sea-level pressure101.5 kPa (1015 mB, 29.97 in.Hg)
Remarks Automated weather observing station with precipitation discriminator
Pressure rising more slowly
Flight conditions Visual Meteorological Conditions
Raw dataKORD 060851Z 36005KT 10SM BKN034 OVC095 03/M01 A2996 RMK AO2 SLP148 T00331006 51009
An unhandled exception has occurred. See browser dev tools for details. Reload 🗙